createdAt,value
2023-01-25T08:10:41.852Z,98879.41
2023-01-25T08:13:12.260Z,98885.41
2023-01-25T08:15:45.206Z,98874.19
2023-01-25T09:00:50.334Z,98863.44
2023-01-25T09:03:20.817Z,98870.84
2023-01-25T09:05:52.434Z,98861.16
2023-01-25T09:08:22.644Z,98864.28
2023-01-25T09:10:52.662Z,98858.91
2023-01-25T09:18:25.934Z,98852.34
2023-01-25T09:20:56.924Z,98850.72
2023-01-25T09:23:28.281Z,98857.00
2023-01-25T09:31:18.578Z,98842.56
2023-01-25T09:35:30.092Z,98841.31
2023-01-25T09:38:02.681Z,98842.19
2023-01-25T09:41:01.101Z,98825.28
2023-01-25T09:47:59.629Z,98822.69
2023-01-25T09:52:08.184Z,98822.63
2023-01-25T09:54:47.018Z,98819.13
2023-01-25T09:58:24.954Z,98817.22
2023-01-25T10:02:07.972Z,98822.41
2023-01-25T10:08:40.801Z,98804.09
2023-01-25T10:16:00.834Z,98796.50
2023-01-25T10:23:34.763Z,98786.31
2023-01-25T10:26:08.751Z,98784.59
2023-01-25T10:28:48.093Z,98766.41
2023-01-25T10:34:58.160Z,98764.25
2023-01-25T10:45:13.462Z,98749.97
2023-01-25T10:47:47.031Z,98750.34
2023-01-25T10:54:18.149Z,98754.59
2023-01-25T10:56:52.224Z,98751.00
2023-01-25T10:59:24.771Z,98745.06
2023-01-25T11:02:42.383Z,98735.75
2023-01-25T11:05:29.590Z,98729.97
2023-01-25T11:08:01.588Z,98727.44
2023-01-25T11:10:36.061Z,98731.56
2023-01-25T11:13:53.970Z,98717.88
2023-01-25T11:16:36.720Z,98718.47
2023-01-25T11:19:47.360Z,98714.75
2023-01-25T11:22:26.905Z,98695.25
2023-01-25T11:24:57.046Z,98700.00
2023-01-25T11:27:30.911Z,98690.38
2023-01-25T11:30:11.587Z,98690.94
2023-01-25T11:32:43.108Z,98685.63
2023-01-25T11:40:45.894Z,98669.50
2023-01-25T11:52:28.588Z,98652.13
2023-01-25T12:13:24.389Z,98618.25
2023-01-25T12:16:04.581Z,98618.41
2023-01-25T12:19:03.350Z,98619.81
2023-01-25T12:25:27.279Z,98608.38
2023-01-25T12:28:08.836Z,98600.25
2023-01-25T12:31:05.361Z,98605.22
2023-01-25T12:33:40.028Z,98591.50
2023-01-25T12:37:00.928Z,98581.41
2023-01-25T12:48:22.105Z,98570.75
2023-01-25T12:54:46.833Z,98564.59
2023-01-25T12:57:27.951Z,98562.50
2023-01-25T13:12:56.083Z,98545.88
2023-01-25T13:19:46.036Z,98549.88
2023-01-25T13:22:17.081Z,98544.41
2023-01-25T13:25:47.525Z,98551.94
2023-01-25T13:33:49.465Z,98536.63
2023-01-25T13:44:23.607Z,98537.75
2023-01-25T13:46:53.998Z,98525.81
2023-01-25T13:49:26.568Z,98525.13
2023-01-25T13:53:52.767Z,98520.25
2023-01-25T13:56:30.435Z,98513.50
2023-01-25T13:58:59.617Z,98514.78
2023-01-25T14:01:31.863Z,98517.56
2023-01-25T14:04:53.467Z,98518.44
2023-01-25T14:08:06.485Z,98514.44
2023-01-25T14:21:34.559Z,98516.28
2023-01-25T14:31:35.052Z,98517.75
2023-01-25T14:34:29.197Z,98516.41
2023-01-25T14:37:16.044Z,98512.03
2023-01-25T14:39:48.247Z,98507.75
2023-01-25T14:42:43.757Z,98504.91
2023-01-25T14:45:15.405Z,98510.28
2023-01-25T14:47:48.029Z,98505.50
2023-01-25T14:50:37.988Z,98511.22
2023-01-25T14:58:11.613Z,98516.53
2023-01-25T15:00:41.950Z,98519.72
2023-01-25T15:03:37.883Z,98520.16
2023-01-25T15:10:39.745Z,98517.47
2023-01-25T15:13:30.615Z,98507.25
2023-01-25T15:16:50.652Z,98508.78
2023-01-25T15:19:24.795Z,98511.94
2023-01-25T15:22:44.769Z,98505.72
2023-01-25T15:26:30.375Z,98507.19
2023-01-25T15:29:02.895Z,98506.06
2023-01-25T15:31:34.722Z,98513.44
2023-01-25T15:38:32.974Z,98512.13
2023-01-25T15:41:03.049Z,98504.31
2023-01-25T15:44:06.420Z,98513.84
2023-01-25T15:47:27.657Z,98515.38
2023-01-25T15:49:57.504Z,98512.56
2023-01-25T15:52:37.444Z,98518.53
2023-01-25T15:55:08.052Z,98510.16
2023-01-25T15:57:39.474Z,98509.16
2023-01-25T16:09:37.446Z,98518.66
2023-01-25T16:12:07.549Z,98514.38
2023-01-25T16:14:40.802Z,98511.69
2023-01-25T16:17:19.244Z,98515.25
2023-01-25T16:19:51.371Z,98515.56
2023-01-25T16:22:26.457Z,98511.38
2023-01-25T16:29:34.782Z,98516.88
2023-01-25T16:32:06.035Z,98517.88
2023-01-25T16:35:53.583Z,98511.91
2023-01-25T16:39:39.600Z,98518.97
2023-01-25T16:51:08.783Z,98506.16
2023-01-25T16:55:37.699Z,98509.69
2023-01-25T21:28:40.554Z,98232.84
